sensor_id;sensor_type;location;lat;lon;timestamp;P1;durP1;ratioP1;P2;durP2;ratioP2
15689;SDS011;7945;48.816;11.506;2023-05-07T00:00:26;0.50;;;0.50;;
15689;SDS011;7945;48.816;11.506;2023-05-07T00:02:54;0.40;;;0.40;;
15689;SDS011;7945;48.816;11.506;2023-05-07T00:05:21;0.50;;;0.50;;
15689;SDS011;7945;48.816;11.506;2023-05-07T00:07:49;0.50;;;0.50;;
15689;SDS011;7945;48.816;11.506;2023-05-07T00:10:17;0.50;;;0.50;;
15689;SDS011;7945;48.816;11.506;2023-05-07T00:12:44;0.57;;;0.57;;
15689;SDS011;7945;48.816;11.506;2023-05-07T00:15:11;0.40;;;0.40;;
15689;SDS011;7945;48.816;11.506;2023-05-07T00:17:37;0.43;;;0.43;;
15689;SDS011;7945;48.816;11.506;2023-05-07T00:20:04;0.55;;;0.55;;
15689;SDS011;7945;48.816;11.506;2023-05-07T00:22:32;0.50;;;0.50;;
15689;SDS011;7945;48.816;11.506;2023-05-07T00:25:00;0.45;;;0.45;;
15689;SDS011;7945;48.816;11.506;2023-05-07T00:27:27;0.50;;;0.50;;
15689;SDS011;7945;48.816;11.506;2023-05-07T00:29:53;0.50;;;0.50;;
15689;SDS011;7945;48.816;11.506;2023-05-07T00:32:20;0.50;;;0.50;;
15689;SDS011;7945;48.816;11.506;2023-05-07T00:34:47;0.50;;;0.50;;
15689;SDS011;7945;48.816;11.506;2023-05-07T00:37:14;0.45;;;0.45;;
15689;SDS011;7945;48.816;11.506;2023-05-07T00:39:40;0.47;;;0.47;;
15689;SDS011;7945;48.816;11.506;2023-05-07T00:42:09;0.40;;;0.40;;
15689;SDS011;7945;48.816;11.506;2023-05-07T00:44:35;0.50;;;0.50;;
15689;SDS011;7945;48.816;11.506;2023-05-07T00:47:02;0.40;;;0.40;;
15689;SDS011;7945;48.816;11.506;2023-05-07T00:49:34;0.43;;;0.43;;
15689;SDS011;7945;48.816;11.506;2023-05-07T00:52:03;0.50;;;0.50;;
15689;SDS011;7945;48.816;11.506;2023-05-07T00:54:32;0.60;;;0.60;;
15689;SDS011;7945;48.816;11.506;2023-05-07T00:56:59;0.50;;;0.50;;
15689;SDS011;7945;48.816;11.506;2023-05-07T00:59:29;0.57;;;0.57;;
15689;SDS011;7945;48.816;11.506;2023-05-07T01:01:57;0.50;;;0.50;;
15689;SDS011;7945;48.816;11.506;2023-05-07T01:04:24;0.60;;;0.60;;
15689;SDS011;7945;48.816;11.506;2023-05-07T01:06:51;0.50;;;0.50;;
15689;SDS011;7945;48.816;11.506;2023-05-07T01:09:20;0.50;;;0.50;;
15689;SDS011;7945;48.816;11.506;2023-05-07T01:11:47;0.50;;;0.50;;
15689;SDS011;7945;48.816;11.506;2023-05-07T01:14:16;0.50;;;0.50;;
15689;SDS011;7945;48.816;11.506;2023-05-07T01:16:44;0.47;;;0.47;;
15689;SDS011;7945;48.816;11.506;2023-05-07T01:19:11;0.50;;;0.50;;
15689;SDS011;7945;48.816;11.506;2023-05-07T01:21:41;0.50;;;0.50;;
15689;SDS011;7945;48.816;11.506;2023-05-07T01:24:12;0.50;;;0.50;;
15689;SDS011;7945;48.816;11.506;2023-05-07T01:26:40;0.50;;;0.50;;
15689;SDS011;7945;48.816;11.506;2023-05-07T01:29:08;0.50;;;0.50;;
15689;SDS011;7945;48.816;11.506;2023-05-07T01:31:35;0.60;;;0.60;;
15689;SDS011;7945;48.816;11.506;2023-05-07T01:34:03;0.50;;;0.50;;
15689;SDS011;7945;48.816;11.506;2023-05-07T01:36:30;0.52;;;0.52;;
15689;SDS011;7945;48.816;11.506;2023-05-07T01:38:58;0.50;;;0.50;;
15689;SDS011;7945;48.816;11.506;2023-05-07T01:41:27;0.50;;;0.50;;
15689;SDS011;7945;48.816;11.506;2023-05-07T01:43:54;0.50;;;0.50;;
15689;SDS011;7945;48.816;11.506;2023-05-07T01:46:22;0.60;;;0.60;;
15689;SDS011;7945;48.816;11.506;2023-05-07T01:48:50;0.50;;;0.50;;
15689;SDS011;7945;48.816;11.506;2023-05-07T01:51:17;0.50;;;0.50;;
15689;SDS011;7945;48.816;11.506;2023-05-07T01:53:44;0.50;;;0.50;;
15689;SDS011;7945;48.816;11.506;2023-05-07T01:56:15;0.60;;;0.60;;
15689;SDS011;7945;48.816;11.506;2023-05-07T01:58:44;0.57;;;0.57;;
15689;SDS011;7945;48.816;11.506;2023-05-07T02:01:10;0.50;;;0.50;;
15689;SDS011;7945;48.816;11.506;2023-05-07T02:03:37;0.50;;;0.50;;
15689;SDS011;7945;48.816;11.506;2023-05-07T02:06:04;0.50;;;0.50;;
15689;SDS011;7945;48.816;11.506;2023-05-07T02:08:31;0.60;;;0.60;;
15689;SDS011;7945;48.816;11.506;2023-05-07T02:10:58;0.60;;;0.60;;
15689;SDS011;7945;48.816;11.506;2023-05-07T02:13:25;0.50;;;0.50;;
15689;SDS011;7945;48.816;11.506;2023-05-07T02:15:54;0.50;;;0.50;;
15689;SDS011;7945;48.816;11.506;2023-05-07T02:18:20;0.50;;;0.50;;
15689;SDS011;7945;48.816;11.506;2023-05-07T02:20:47;0.57;;;0.57;;
15689;SDS011;7945;48.816;11.506;2023-05-07T02:23:14;0.50;;;0.50;;
15689;SDS011;7945;48.816;11.506;2023-05-07T02:25:41;0.55;;;0.55;;
15689;SDS011;7945;48.816;11.506;2023-05-07T02:28:07;0.40;;;0.40;;
15689;SDS011;7945;48.816;11.506;2023-05-07T02:30:35;0.45;;;0.45;;
15689;SDS011;7945;48.816;11.506;2023-05-07T02:33:04;0.60;;;0.60;;
15689;SDS011;7945;48.816;11.506;2023-05-07T02:35:31;0.60;;;0.60;;
15689;SDS011;7945;48.816;11.506;2023-05-07T02:37:58;0.50;;;0.50;;
15689;SDS011;7945;48.816;11.506;2023-05-07T02:40:24;0.50;;;0.50;;
15689;SDS011;7945;48.816;11.506;2023-05-07T02:42:51;0.50;;;0.50;;
15689;SDS011;7945;48.816;11.506;2023-05-07T02:45:18;0.50;;;0.50;;
15689;SDS011;7945;48.816;11.506;2023-05-07T02:47:44;0.60;;;0.60;;
15689;SDS011;7945;48.816;11.506;2023-05-07T02:50:12;0.50;;;0.50;;
15689;SDS011;7945;48.816;11.506;2023-05-07T02:52:39;0.60;;;0.60;;
15689;SDS011;7945;48.816;11.506;2023-05-07T02:55:06;0.55;;;0.55;;
15689;SDS011;7945;48.816;11.506;2023-05-07T02:57:34;0.50;;;0.50;;
15689;SDS011;7945;48.816;11.506;2023-05-07T03:00:09;0.50;;;0.50;;
15689;SDS011;7945;48.816;11.506;2023-05-07T03:02:37;0.60;;;0.60;;
15689;SDS011;7945;48.816;11.506;2023-05-07T03:05:04;0.60;;;0.60;;
15689;SDS011;7945;48.816;11.506;2023-05-07T03:07:33;0.50;;;0.50;;
15689;SDS011;7945;48.816;11.506;2023-05-07T03:10:00;0.65;;;0.65;;
15689;SDS011;7945;48.816;11.506;2023-05-07T03:12:26;0.50;;;0.50;;
15689;SDS011;7945;48.816;11.506;2023-05-07T03:14:53;1.77;;;1.67;;
15689;SDS011;7945;48.816;11.506;2023-05-07T03:17:20;0.60;;;0.60;;
15689;SDS011;7945;48.816;11.506;2023-05-07T03:19:46;0.60;;;0.60;;
15689;SDS011;7945;48.816;11.506;2023-05-07T03:22:13;0.52;;;0.52;;
15689;SDS011;7945;48.816;11.506;2023-05-07T03:24:41;0.60;;;0.60;;
15689;SDS011;7945;48.816;11.506;2023-05-07T03:27:08;0.60;;;0.60;;
15689;SDS011;7945;48.816;11.506;2023-05-07T03:29:35;0.50;;;0.50;;
15689;SDS011;7945;48.816;11.506;2023-05-07T03:32:02;0.60;;;0.60;;
15689;SDS011;7945;48.816;11.506;2023-05-07T03:34:28;0.57;;;0.57;;
15689;SDS011;7945;48.816;11.506;2023-05-07T03:36:55;0.60;;;0.60;;
15689;SDS011;7945;48.816;11.506;2023-05-07T03:39:22;0.60;;;0.60;;
15689;SDS011;7945;48.816;11.506;2023-05-07T03:41:50;0.50;;;0.50;;
15689;SDS011;7945;48.816;11.506;2023-05-07T03:44:16;0.60;;;0.60;;
15689;SDS011;7945;48.816;11.506;2023-05-07T03:46:43;0.50;;;0.50;;
15689;SDS011;7945;48.816;11.506;2023-05-07T03:49:10;0.50;;;0.50;;
15689;SDS011;7945;48.816;11.506;2023-05-07T03:51:36;0.60;;;0.60;;
15689;SDS011;7945;48.816;11.506;2023-05-07T03:54:03;0.50;;;0.50;;
15689;SDS011;7945;48.816;11.506;2023-05-07T03:56:30;0.50;;;0.50;;
15689;SDS011;7945;48.816;11.506;2023-05-07T03:58:58;0.50;;;0.50;;
15689;SDS011;7945;48.816;11.506;2023-05-07T04:01:26;0.60;;;0.60;;
15689;SDS011;7945;48.816;11.506;2023-05-07T04:03:53;0.50;;;0.50;;
15689;SDS011;7945;48.816;11.506;2023-05-07T04:06:20;0.50;;;0.50;;
15689;SDS011;7945;48.816;11.506;2023-05-07T04:08:47;0.50;;;0.50;;
15689;SDS011;7945;48.816;11.506;2023-05-07T04:11:13;0.60;;;0.60;;
15689;SDS011;7945;48.816;11.506;2023-05-07T04:13:40;0.60;;;0.60;;
15689;SDS011;7945;48.816;11.506;2023-05-07T04:16:08;0.52;;;0.52;;
15689;SDS011;7945;48.816;11.506;2023-05-07T04:18:35;0.60;;;0.60;;
15689;SDS011;7945;48.816;11.506;2023-05-07T04:21:01;0.60;;;0.60;;
15689;SDS011;7945;48.816;11.506;2023-05-07T04:23:28;0.60;;;0.60;;
15689;SDS011;7945;48.816;11.506;2023-05-07T04:25:55;0.60;;;0.60;;
15689;SDS011;7945;48.816;11.506;2023-05-07T04:28:22;0.50;;;0.50;;
15689;SDS011;7945;48.816;11.506;2023-05-07T04:30:49;0.50;;;0.50;;
15689;SDS011;7945;48.816;11.506;2023-05-07T04:33:17;0.50;;;0.50;;
15689;SDS011;7945;48.816;11.506;2023-05-07T04:35:44;0.60;;;0.60;;
15689;SDS011;7945;48.816;11.506;2023-05-07T04:38:11;0.50;;;0.50;;
15689;SDS011;7945;48.816;11.506;2023-05-07T04:40:38;0.50;;;0.50;;
15689;SDS011;7945;48.816;11.506;2023-05-07T04:43:05;0.52;;;0.52;;
15689;SDS011;7945;48.816;11.506;2023-05-07T04:45:32;0.60;;;0.60;;
15689;SDS011;7945;48.816;11.506;2023-05-07T04:47:59;0.52;;;0.52;;
15689;SDS011;7945;48.816;11.506;2023-05-07T04:50:27;0.57;;;0.57;;
15689;SDS011;7945;48.816;11.506;2023-05-07T04:52:53;0.50;;;0.50;;
15689;SDS011;7945;48.816;11.506;2023-05-07T04:55:20;0.60;;;0.60;;
15689;SDS011;7945;48.816;11.506;2023-05-07T04:57:47;0.60;;;0.60;;
15689;SDS011;7945;48.816;11.506;2023-05-07T05:00:14;0.50;;;0.50;;
15689;SDS011;7945;48.816;11.506;2023-05-07T05:02:41;0.60;;;0.60;;
15689;SDS011;7945;48.816;11.506;2023-05-07T05:05:08;0.60;;;0.60;;
15689;SDS011;7945;48.816;11.506;2023-05-07T05:07:36;0.60;;;0.60;;
15689;SDS011;7945;48.816;11.506;2023-05-07T05:10:04;0.50;;;0.50;;
15689;SDS011;7945;48.816;11.506;2023-05-07T05:12:31;0.50;;;0.50;;
15689;SDS011;7945;48.816;11.506;2023-05-07T05:14:58;0.50;;;0.50;;
15689;SDS011;7945;48.816;11.506;2023-05-07T05:17:25;0.50;;;0.50;;
15689;SDS011;7945;48.816;11.506;2023-05-07T05:19:52;0.50;;;0.50;;
15689;SDS011;7945;48.816;11.506;2023-05-07T05:22:18;0.55;;;0.55;;
15689;SDS011;7945;48.816;11.506;2023-05-07T05:24:46;0.50;;;0.50;;
15689;SDS011;7945;48.816;11.506;2023-05-07T05:27:13;0.50;;;0.50;;
15689;SDS011;7945;48.816;11.506;2023-05-07T05:29:40;0.40;;;0.40;;
15689;SDS011;7945;48.816;11.506;2023-05-07T05:32:06;0.47;;;0.47;;
15689;SDS011;7945;48.816;11.506;2023-05-07T05:34:33;0.47;;;0.47;;
15689;SDS011;7945;48.816;11.506;2023-05-07T05:37:00;0.38;;;0.38;;
15689;SDS011;7945;48.816;11.506;2023-05-07T05:39:26;0.40;;;0.40;;
15689;SDS011;7945;48.816;11.506;2023-05-07T05:41:54;0.50;;;0.50;;
15689;SDS011;7945;48.816;11.506;2023-05-07T05:44:21;0.40;;;0.40;;
15689;SDS011;7945;48.816;11.506;2023-05-07T05:46:48;0.57;;;0.57;;
15689;SDS011;7945;48.816;11.506;2023-05-07T05:49:15;0.63;;;0.63;;
15689;SDS011;7945;48.816;11.506;2023-05-07T05:51:42;0.40;;;0.40;;
15689;SDS011;7945;48.816;11.506;2023-05-07T05:54:09;0.50;;;0.50;;
15689;SDS011;7945;48.816;11.506;2023-05-07T05:56:36;0.40;;;0.40;;
15689;SDS011;7945;48.816;11.506;2023-05-07T05:59:04;0.50;;;0.50;;
15689;SDS011;7945;48.816;11.506;2023-05-07T06:01:31;0.45;;;0.45;;
15689;SDS011;7945;48.816;11.506;2023-05-07T06:03:58;0.40;;;0.40;;
15689;SDS011;7945;48.816;11.506;2023-05-07T06:06:25;0.50;;;0.50;;
15689;SDS011;7945;48.816;11.506;2023-05-07T06:08:52;0.40;;;0.40;;
15689;SDS011;7945;48.816;11.506;2023-05-07T06:11:19;0.40;;;0.40;;
15689;SDS011;7945;48.816;11.506;2023-05-07T06:15:21;0.50;;;0.50;;
15689;SDS011;7945;48.816;11.506;2023-05-07T06:17:48;0.50;;;0.50;;
15689;SDS011;7945;48.816;11.506;2023-05-07T06:20:15;0.40;;;0.40;;
15689;SDS011;7945;48.816;11.506;2023-05-07T06:22:42;0.40;;;0.40;;
15689;SDS011;7945;48.816;11.506;2023-05-07T06:25:09;1.23;;;1.05;;
15689;SDS011;7945;48.816;11.506;2023-05-07T06:27:35;0.40;;;0.40;;
15689;SDS011;7945;48.816;11.506;2023-05-07T06:30:02;0.73;;;0.73;;
15689;SDS011;7945;48.816;11.506;2023-05-07T06:32:31;0.60;;;0.60;;
15689;SDS011;7945;48.816;11.506;2023-05-07T06:34:57;0.93;;;0.93;;
15689;SDS011;7945;48.816;11.506;2023-05-07T06:37:24;0.43;;;0.43;;
15689;SDS011;7945;48.816;11.506;2023-05-07T06:39:51;0.40;;;0.40;;
15689;SDS011;7945;48.816;11.506;2023-05-07T06:42:18;2.05;;;0.93;;
15689;SDS011;7945;48.816;11.506;2023-05-07T06:44:45;0.50;;;0.50;;
15689;SDS011;7945;48.816;11.506;2023-05-07T06:47:12;0.40;;;0.40;;
15689;SDS011;7945;48.816;11.506;2023-05-07T06:49:40;0.40;;;0.40;;
15689;SDS011;7945;48.816;11.506;2023-05-07T06:52:06;0.40;;;0.40;;
15689;SDS011;7945;48.816;11.506;2023-05-07T06:54:33;0.40;;;0.40;;
15689;SDS011;7945;48.816;11.506;2023-05-07T06:57:00;0.43;;;0.43;;
15689;SDS011;7945;48.816;11.506;2023-05-07T06:59:26;0.40;;;0.40;;
15689;SDS011;7945;48.816;11.506;2023-05-07T07:01:53;0.50;;;0.50;;
15689;SDS011;7945;48.816;11.506;2023-05-07T07:04:20;0.60;;;0.60;;
15689;SDS011;7945;48.816;11.506;2023-05-07T07:06:49;0.40;;;0.40;;
15689;SDS011;7945;48.816;11.506;2023-05-07T07:09:17;0.50;;;0.50;;
15689;SDS011;7945;48.816;11.506;2023-05-07T07:11:44;0.60;;;0.60;;
15689;SDS011;7945;48.816;11.506;2023-05-07T07:14:11;0.50;;;0.50;;
15689;SDS011;7945;48.816;11.506;2023-05-07T07:16:38;0.50;;;0.50;;
15689;SDS011;7945;48.816;11.506;2023-05-07T07:19:04;0.50;;;0.50;;
15689;SDS011;7945;48.816;11.506;2023-05-07T07:21:31;0.60;;;0.60;;
15689;SDS011;7945;48.816;11.506;2023-05-07T07:23:59;0.45;;;0.45;;
15689;SDS011;7945;48.816;11.506;2023-05-07T07:26:26;0.50;;;0.50;;
15689;SDS011;7945;48.816;11.506;2023-05-07T07:28:53;0.40;;;0.40;;
15689;SDS011;7945;48.816;11.506;2023-05-07T07:31:19;0.50;;;0.50;;
15689;SDS011;7945;48.816;11.506;2023-05-07T07:33:46;0.50;;;0.50;;
15689;SDS011;7945;48.816;11.506;2023-05-07T07:36:15;0.40;;;0.40;;
15689;SDS011;7945;48.816;11.506;2023-05-07T07:38:41;0.60;;;0.60;;
15689;SDS011;7945;48.816;11.506;2023-05-07T07:41:10;1.30;;;1.30;;
15689;SDS011;7945;48.816;11.506;2023-05-07T07:43:36;0.52;;;0.52;;
15689;SDS011;7945;48.816;11.506;2023-05-07T07:46:03;16.67;;;7.45;;
15689;SDS011;7945;48.816;11.506;2023-05-07T07:48:30;5.47;;;5.03;;
15689;SDS011;7945;48.816;11.506;2023-05-07T07:50:57;7.07;;;6.05;;
15689;SDS011;7945;48.816;11.506;2023-05-07T07:53:23;5.78;;;5.28;;
15689;SDS011;7945;48.816;11.506;2023-05-07T07:55:50;6.35;;;5.28;;
15689;SDS011;7945;48.816;11.506;2023-05-07T07:58:18;107.88;;;9.02;;
15689;SDS011;7945;48.816;11.506;2023-05-07T08:00:47;11.18;;;5.25;;
15689;SDS011;7945;48.816;11.506;2023-05-07T08:03:13;43.67;;;6.18;;
15689;SDS011;7945;48.816;11.506;2023-05-07T08:05:41;29.13;;;4.80;;
15689;SDS011;7945;48.816;11.506;2023-05-07T08:08:08;6.50;;;5.90;;
15689;SDS011;7945;48.816;11.506;2023-05-07T08:10:35;12.40;;;6.15;;
15689;SDS011;7945;48.816;11.506;2023-05-07T08:13:04;11.80;;;5.68;;
15689;SDS011;7945;48.816;11.506;2023-05-07T08:15:32;9.45;;;6.25;;
15689;SDS011;7945;48.816;11.506;2023-05-07T08:17:59;5.18;;;2.60;;
15689;SDS011;7945;48.816;11.506;2023-05-07T08:20:27;0.70;;;0.70;;
15689;SDS011;7945;48.816;11.506;2023-05-07T08:22:54;0.50;;;0.50;;
15689;SDS011;7945;48.816;11.506;2023-05-07T08:25:21;0.68;;;0.68;;
15689;SDS011;7945;48.816;11.506;2023-05-07T08:27:48;0.75;;;0.47;;
15689;SDS011;7945;48.816;11.506;2023-05-07T08:30:14;0.35;;;0.35;;
15689;SDS011;7945;48.816;11.506;2023-05-07T08:32:43;0.50;;;0.50;;
15689;SDS011;7945;48.816;11.506;2023-05-07T08:35:09;0.40;;;0.40;;
15689;SDS011;7945;48.816;11.506;2023-05-07T08:37:36;0.40;;;0.40;;
15689;SDS011;7945;48.816;11.506;2023-05-07T08:40:03;1.17;;;1.15;;
15689;SDS011;7945;48.816;11.506;2023-05-07T08:42:31;0.40;;;0.40;;
15689;SDS011;7945;48.816;11.506;2023-05-07T08:45:01;0.40;;;0.40;;
15689;SDS011;7945;48.816;11.506;2023-05-07T08:47:32;0.40;;;0.40;;
15689;SDS011;7945;48.816;11.506;2023-05-07T08:50:06;0.40;;;0.40;;
15689;SDS011;7945;48.816;11.506;2023-05-07T08:52:34;0.73;;;0.73;;
15689;SDS011;7945;48.816;11.506;2023-05-07T08:55:02;0.40;;;0.40;;
15689;SDS011;7945;48.816;11.506;2023-05-07T08:57:29;0.50;;;0.50;;
15689;SDS011;7945;48.816;11.506;2023-05-07T08:59:56;0.40;;;0.40;;
15689;SDS011;7945;48.816;11.506;2023-05-07T09:02:23;0.43;;;0.43;;
15689;SDS011;7945;48.816;11.506;2023-05-07T09:04:50;0.50;;;0.50;;
15689;SDS011;7945;48.816;11.506;2023-05-07T09:07:19;0.35;;;0.35;;
15689;SDS011;7945;48.816;11.506;2023-05-07T09:09:46;0.65;;;0.65;;
15689;SDS011;7945;48.816;11.506;2023-05-07T09:12:12;0.70;;;0.70;;
15689;SDS011;7945;48.816;11.506;2023-05-07T09:14:39;0.85;;;0.85;;
15689;SDS011;7945;48.816;11.506;2023-05-07T09:17:06;0.40;;;0.40;;
15689;SDS011;7945;48.816;11.506;2023-05-07T09:19:32;0.40;;;0.40;;
15689;SDS011;7945;48.816;11.506;2023-05-07T09:22:00;0.43;;;0.43;;
15689;SDS011;7945;48.816;11.506;2023-05-07T09:24:28;0.45;;;0.45;;
15689;SDS011;7945;48.816;11.506;2023-05-07T09:27:00;0.40;;;0.40;;
15689;SDS011;7945;48.816;11.506;2023-05-07T09:29:27;0.38;;;0.38;;
15689;SDS011;7945;48.816;11.506;2023-05-07T09:31:55;0.70;;;0.70;;
15689;SDS011;7945;48.816;11.506;2023-05-07T09:34:21;0.40;;;0.40;;
15689;SDS011;7945;48.816;11.506;2023-05-07T09:36:48;2.60;;;1.13;;
15689;SDS011;7945;48.816;11.506;2023-05-07T09:39:15;0.40;;;0.40;;
15689;SDS011;7945;48.816;11.506;2023-05-07T09:41:44;0.40;;;0.40;;
15689;SDS011;7945;48.816;11.506;2023-05-07T09:44:12;0.30;;;0.30;;
15689;SDS011;7945;48.816;11.506;2023-05-07T09:46:41;0.30;;;0.30;;
15689;SDS011;7945;48.816;11.506;2023-05-07T09:49:10;0.57;;;0.57;;
15689;SDS011;7945;48.816;11.506;2023-05-07T09:51:45;0.77;;;0.77;;
15689;SDS011;7945;48.816;11.506;2023-05-07T09:54:15;0.40;;;0.40;;
15689;SDS011;7945;48.816;11.506;2023-05-07T09:56:42;0.70;;;0.70;;
15689;SDS011;7945;48.816;11.506;2023-05-07T09:59:12;0.30;;;0.30;;
15689;SDS011;7945;48.816;11.506;2023-05-07T10:01:41;0.30;;;0.30;;
15689;SDS011;7945;48.816;11.506;2023-05-07T10:04:09;0.30;;;0.30;;
15689;SDS011;7945;48.816;11.506;2023-05-07T10:06:37;0.30;;;0.30;;
15689;SDS011;7945;48.816;11.506;2023-05-07T10:09:05;0.35;;;0.35;;
15689;SDS011;7945;48.816;11.506;2023-05-07T10:11:32;0.50;;;0.50;;
15689;SDS011;7945;48.816;11.506;2023-05-07T10:14:01;0.50;;;0.50;;
15689;SDS011;7945;48.816;11.506;2023-05-07T10:16:31;0.20;;;0.20;;
15689;SDS011;7945;48.816;11.506;2023-05-07T10:19:01;0.30;;;0.30;;
15689;SDS011;7945;48.816;11.506;2023-05-07T10:21:29;0.30;;;0.30;;
15689;SDS011;7945;48.816;11.506;2023-05-07T10:23:58;0.30;;;0.30;;
15689;SDS011;7945;48.816;11.506;2023-05-07T10:26:27;0.40;;;0.40;;
15689;SDS011;7945;48.816;11.506;2023-05-07T10:28:56;0.30;;;0.30;;
15689;SDS011;7945;48.816;11.506;2023-05-07T10:31:47;0.30;;;0.30;;
15689;SDS011;7945;48.816;11.506;2023-05-07T10:34:21;0.57;;;0.57;;
15689;SDS011;7945;48.816;11.506;2023-05-07T10:36:50;0.30;;;0.30;;
15689;SDS011;7945;48.816;11.506;2023-05-07T10:39:19;0.70;;;0.70;;
15689;SDS011;7945;48.816;11.506;2023-05-07T10:41:47;0.50;;;0.50;;
15689;SDS011;7945;48.816;11.506;2023-05-07T10:44:24;0.30;;;0.30;;
15689;SDS011;7945;48.816;11.506;2023-05-07T10:47:16;0.32;;;0.32;;
15689;SDS011;7945;48.816;11.506;2023-05-07T10:55:52;0.30;;;0.30;;
15689;SDS011;7945;48.816;11.506;2023-05-07T10:58:52;0.47;;;0.47;;
15689;SDS011;7945;48.816;11.506;2023-05-07T11:04:19;0.47;;;0.47;;
15689;SDS011;7945;48.816;11.506;2023-05-07T11:09:57;0.30;;;0.30;;
15689;SDS011;7945;48.816;11.506;2023-05-07T11:12:52;0.57;;;0.57;;
15689;SDS011;7945;48.816;11.506;2023-05-07T11:15:33;0.30;;;0.30;;
15689;SDS011;7945;48.816;11.506;2023-05-07T11:18:10;0.30;;;0.30;;
15689;SDS011;7945;48.816;11.506;2023-05-07T11:20:45;0.30;;;0.30;;
15689;SDS011;7945;48.816;11.506;2023-05-07T11:26:43;0.30;;;0.30;;
15689;SDS011;7945;48.816;11.506;2023-05-07T11:29:11;0.30;;;0.30;;
15689;SDS011;7945;48.816;11.506;2023-05-07T11:31:39;0.25;;;0.25;;
15689;SDS011;7945;48.816;11.506;2023-05-07T11:34:06;0.30;;;0.30;;
15689;SDS011;7945;48.816;11.506;2023-05-07T11:36:35;0.30;;;0.30;;
15689;SDS011;7945;48.816;11.506;2023-05-07T11:39:22;0.20;;;0.20;;
15689;SDS011;7945;48.816;11.506;2023-05-07T11:41:50;0.38;;;0.38;;
15689;SDS011;7945;48.816;11.506;2023-05-07T11:44:17;0.43;;;0.43;;
15689;SDS011;7945;48.816;11.506;2023-05-07T11:46:44;0.30;;;0.30;;
15689;SDS011;7945;48.816;11.506;2023-05-07T11:49:11;0.20;;;0.20;;
15689;SDS011;7945;48.816;11.506;2023-05-07T11:51:39;0.30;;;0.30;;
15689;SDS011;7945;48.816;11.506;2023-05-07T11:54:07;0.40;;;0.40;;
15689;SDS011;7945;48.816;11.506;2023-05-07T11:56:36;0.30;;;0.30;;
15689;SDS011;7945;48.816;11.506;2023-05-07T11:59:04;0.20;;;0.20;;
15689;SDS011;7945;48.816;11.506;2023-05-07T12:01:31;0.30;;;0.30;;
15689;SDS011;7945;48.816;11.506;2023-05-07T12:03:57;5.93;;;0.55;;
15689;SDS011;7945;48.816;11.506;2023-05-07T12:06:24;0.50;;;0.50;;
15689;SDS011;7945;48.816;11.506;2023-05-07T12:08:53;0.30;;;0.30;;
15689;SDS011;7945;48.816;11.506;2023-05-07T12:11:23;0.20;;;0.20;;
15689;SDS011;7945;48.816;11.506;2023-05-07T12:13:51;0.30;;;0.30;;
15689;SDS011;7945;48.816;11.506;2023-05-07T12:16:20;0.20;;;0.20;;
15689;SDS011;7945;48.816;11.506;2023-05-07T12:18:47;0.20;;;0.20;;
15689;SDS011;7945;48.816;11.506;2023-05-07T12:21:15;0.40;;;0.40;;
15689;SDS011;7945;48.816;11.506;2023-05-07T12:23:42;0.40;;;0.40;;
15689;SDS011;7945;48.816;11.506;2023-05-07T12:26:10;0.75;;;0.75;;
15689;SDS011;7945;48.816;11.506;2023-05-07T12:28:37;0.57;;;0.57;;
15689;SDS011;7945;48.816;11.506;2023-05-07T12:31:05;0.20;;;0.20;;
15689;SDS011;7945;48.816;11.506;2023-05-07T12:33:32;0.38;;;0.38;;
15689;SDS011;7945;48.816;11.506;2023-05-07T12:36:02;0.20;;;0.20;;
15689;SDS011;7945;48.816;11.506;2023-05-07T12:38:33;0.20;;;0.20;;
15689;SDS011;7945;48.816;11.506;2023-05-07T12:41:01;0.43;;;0.43;;
15689;SDS011;7945;48.816;11.506;2023-05-07T12:43:29;0.20;;;0.20;;
15689;SDS011;7945;48.816;11.506;2023-05-07T12:45:57;0.20;;;0.20;;
15689;SDS011;7945;48.816;11.506;2023-05-07T12:48:26;0.28;;;0.28;;
15689;SDS011;7945;48.816;11.506;2023-05-07T12:50:53;0.30;;;0.30;;
15689;SDS011;7945;48.816;11.506;2023-05-07T12:53:21;0.20;;;0.20;;
15689;SDS011;7945;48.816;11.506;2023-05-07T12:55:50;0.20;;;0.20;;
15689;SDS011;7945;48.816;11.506;2023-05-07T12:58:19;0.28;;;0.28;;
15689;SDS011;7945;48.816;11.506;2023-05-07T13:00:48;0.30;;;0.30;;
15689;SDS011;7945;48.816;11.506;2023-05-07T13:03:23;0.20;;;0.20;;
15689;SDS011;7945;48.816;11.506;2023-05-07T13:05:51;0.20;;;0.20;;
15689;SDS011;7945;48.816;11.506;2023-05-07T13:08:28;0.30;;;0.30;;
15689;SDS011;7945;48.816;11.506;2023-05-07T13:10:56;0.20;;;0.20;;
15689;SDS011;7945;48.816;11.506;2023-05-07T13:13:24;0.45;;;0.45;;
15689;SDS011;7945;48.816;11.506;2023-05-07T13:15:52;0.20;;;0.20;;
15689;SDS011;7945;48.816;11.506;2023-05-07T13:18:18;0.20;;;0.20;;
15689;SDS011;7945;48.816;11.506;2023-05-07T13:20:45;0.30;;;0.30;;
15689;SDS011;7945;48.816;11.506;2023-05-07T13:23:12;1.15;;;1.15;;
15689;SDS011;7945;48.816;11.506;2023-05-07T13:25:39;0.28;;;0.28;;
15689;SDS011;7945;48.816;11.506;2023-05-07T13:28:06;0.20;;;0.20;;
15689;SDS011;7945;48.816;11.506;2023-05-07T13:30:32;0.20;;;0.20;;
15689;SDS011;7945;48.816;11.506;2023-05-07T13:33:01;0.30;;;0.30;;
15689;SDS011;7945;48.816;11.506;2023-05-07T13:35:28;0.20;;;0.20;;
15689;SDS011;7945;48.816;11.506;2023-05-07T13:37:54;0.30;;;0.30;;
15689;SDS011;7945;48.816;11.506;2023-05-07T13:40:21;0.20;;;0.20;;
15689;SDS011;7945;48.816;11.506;2023-05-07T13:42:48;0.20;;;0.20;;
15689;SDS011;7945;48.816;11.506;2023-05-07T13:45:16;0.20;;;0.20;;
15689;SDS011;7945;48.816;11.506;2023-05-07T13:47:43;0.22;;;0.22;;
15689;SDS011;7945;48.816;11.506;2023-05-07T13:50:12;0.20;;;0.20;;
15689;SDS011;7945;48.816;11.506;2023-05-07T13:52:40;0.20;;;0.20;;
15689;SDS011;7945;48.816;11.506;2023-05-07T13:55:08;0.20;;;0.20;;
15689;SDS011;7945;48.816;11.506;2023-05-07T13:57:35;0.20;;;0.20;;
15689;SDS011;7945;48.816;11.506;2023-05-07T14:00:02;0.28;;;0.28;;
15689;SDS011;7945;48.816;11.506;2023-05-07T14:02:30;0.20;;;0.20;;
15689;SDS011;7945;48.816;11.506;2023-05-07T14:04:56;0.20;;;0.20;;
15689;SDS011;7945;48.816;11.506;2023-05-07T14:07:24;0.20;;;0.20;;
15689;SDS011;7945;48.816;11.506;2023-05-07T14:09:51;0.30;;;0.30;;
15689;SDS011;7945;48.816;11.506;2023-05-07T14:12:18;0.20;;;0.20;;
15689;SDS011;7945;48.816;11.506;2023-05-07T14:14:45;0.20;;;0.20;;
15689;SDS011;7945;48.816;11.506;2023-05-07T14:17:11;0.30;;;0.30;;
15689;SDS011;7945;48.816;11.506;2023-05-07T14:19:38;0.20;;;0.20;;
15689;SDS011;7945;48.816;11.506;2023-05-07T14:22:05;0.25;;;0.25;;
15689;SDS011;7945;48.816;11.506;2023-05-07T14:24:33;0.20;;;0.20;;
15689;SDS011;7945;48.816;11.506;2023-05-07T14:27:00;0.20;;;0.20;;
15689;SDS011;7945;48.816;11.506;2023-05-07T14:29:27;0.20;;;0.20;;
15689;SDS011;7945;48.816;11.506;2023-05-07T14:31:54;0.20;;;0.20;;
15689;SDS011;7945;48.816;11.506;2023-05-07T14:34:22;0.20;;;0.20;;
15689;SDS011;7945;48.816;11.506;2023-05-07T14:36:49;0.20;;;0.20;;
15689;SDS011;7945;48.816;11.506;2023-05-07T14:39:17;0.20;;;0.20;;
15689;SDS011;7945;48.816;11.506;2023-05-07T14:41:46;0.20;;;0.20;;
15689;SDS011;7945;48.816;11.506;2023-05-07T14:44:13;0.28;;;0.28;;
15689;SDS011;7945;48.816;11.506;2023-05-07T14:46:40;0.20;;;0.20;;
15689;SDS011;7945;48.816;11.506;2023-05-07T14:49:07;0.30;;;0.30;;
15689;SDS011;7945;48.816;11.506;2023-05-07T14:51:41;0.20;;;0.20;;
15689;SDS011;7945;48.816;11.506;2023-05-07T14:54:08;0.20;;;0.20;;
15689;SDS011;7945;48.816;11.506;2023-05-07T14:56:35;0.20;;;0.20;;
15689;SDS011;7945;48.816;11.506;2023-05-07T14:59:03;0.30;;;0.30;;
15689;SDS011;7945;48.816;11.506;2023-05-07T15:03:13;2.33;;;2.10;;
15689;SDS011;7945;48.816;11.506;2023-05-07T15:05:40;2.10;;;1.90;;
15689;SDS011;7945;48.816;11.506;2023-05-07T15:08:07;2.65;;;1.92;;
15689;SDS011;7945;48.816;11.506;2023-05-07T15:10:35;2.00;;;1.90;;